sensor_id;sensor_type;location;lat;lon;timestamp;P1;durP1;ratioP1;P2;durP2;ratioP2
12842;SDS011;35724;49.324;-123.118;2022-10-16T00:01:29;2.90;;;2.60;;
12842;SDS011;35724;49.324;-123.118;2022-10-16T00:11:43;3.63;;;2.70;;
12842;SDS011;35724;49.324;-123.118;2022-10-16T00:22:05;3.70;;;3.00;;
12842;SDS011;35724;49.324;-123.118;2022-10-16T00:32:27;3.38;;;2.80;;
12842;SDS011;35724;49.324;-123.118;2022-10-16T00:42:40;3.20;;;2.90;;
12842;SDS011;35724;49.324;-123.118;2022-10-16T00:52:57;3.65;;;3.35;;
12842;SDS011;35724;49.324;-123.118;2022-10-16T01:13:32;3.25;;;2.95;;
12842;SDS011;35724;49.324;-123.118;2022-10-16T01:23:46;4.82;;;3.55;;
12842;SDS011;35724;49.324;-123.118;2022-10-16T01:34:05;3.75;;;3.33;;
12842;SDS011;35724;49.324;-123.118;2022-10-16T01:44:22;5.35;;;3.45;;
12842;SDS011;35724;49.324;-123.118;2022-10-16T01:54:33;4.53;;;3.55;;
12842;SDS011;35724;49.324;-123.118;2022-10-16T02:04:56;4.72;;;4.28;;
12842;SDS011;35724;49.324;-123.118;2022-10-16T02:15:47;5.57;;;3.95;;
12842;SDS011;35724;49.324;-123.118;2022-10-16T02:25:56;6.05;;;4.20;;
12842;SDS011;35724;49.324;-123.118;2022-10-16T02:36:14;5.63;;;4.60;;
12842;SDS011;35724;49.324;-123.118;2022-10-16T02:46:22;6.13;;;4.75;;
12842;SDS011;35724;49.324;-123.118;2022-10-16T02:56:38;4.68;;;4.20;;
12842;SDS011;35724;49.324;-123.118;2022-10-16T03:06:46;6.30;;;4.47;;
12842;SDS011;35724;49.324;-123.118;2022-10-16T03:16:55;7.20;;;4.82;;
12842;SDS011;35724;49.324;-123.118;2022-10-16T03:27:02;7.35;;;4.20;;
12842;SDS011;35724;49.324;-123.118;2022-10-16T03:37:11;5.50;;;3.63;;
12842;SDS011;35724;49.324;-123.118;2022-10-16T03:47:23;3.83;;;3.42;;
12842;SDS011;35724;49.324;-123.118;2022-10-16T03:57:32;11.30;;;3.38;;
12842;SDS011;35724;49.324;-123.118;2022-10-16T04:40:17;5.18;;;3.92;;
12842;SDS011;35724;49.324;-123.118;2022-10-16T04:50:27;4.65;;;3.55;;
12842;SDS011;35724;49.324;-123.118;2022-10-16T05:00:40;6.05;;;3.80;;
12842;SDS011;35724;49.324;-123.118;2022-10-16T05:21:38;5.85;;;4.03;;
12842;SDS011;35724;49.324;-123.118;2022-10-16T05:31:49;7.95;;;4.32;;
12842;SDS011;35724;49.324;-123.118;2022-10-16T05:41:57;5.15;;;4.30;;
12842;SDS011;35724;49.324;-123.118;2022-10-16T05:52:06;4.72;;;4.22;;
12842;SDS011;35724;49.324;-123.118;2022-10-16T06:02:17;4.50;;;4.10;;
12842;SDS011;35724;49.324;-123.118;2022-10-16T06:12:27;5.53;;;4.22;;
12842;SDS011;35724;49.324;-123.118;2022-10-16T06:22:34;4.40;;;4.00;;
12842;SDS011;35724;49.324;-123.118;2022-10-16T06:32:43;4.43;;;3.85;;
12842;SDS011;35724;49.324;-123.118;2022-10-16T06:42:54;4.75;;;3.92;;
12842;SDS011;35724;49.324;-123.118;2022-10-16T07:05:29;4.70;;;3.60;;
12842;SDS011;35724;49.324;-123.118;2022-10-16T07:15:42;3.58;;;3.28;;
12842;SDS011;35724;49.324;-123.118;2022-10-16T07:25:58;3.55;;;3.25;;
12842;SDS011;35724;49.324;-123.118;2022-10-16T07:36:24;4.22;;;3.28;;
12842;SDS011;35724;49.324;-123.118;2022-10-16T07:46:39;3.75;;;3.45;;
12842;SDS011;35724;49.324;-123.118;2022-10-16T07:56:58;3.95;;;3.55;;
12842;SDS011;35724;49.324;-123.118;2022-10-16T08:19:36;4.03;;;3.58;;
12842;SDS011;35724;49.324;-123.118;2022-10-16T08:30:14;4.70;;;4.30;;
12842;SDS011;35724;49.324;-123.118;2022-10-16T09:05:24;6.28;;;5.68;;
12842;SDS011;35724;49.324;-123.118;2022-10-16T09:16:07;6.22;;;5.47;;
12842;SDS011;35724;49.324;-123.118;2022-10-16T09:26:26;6.93;;;5.60;;
12842;SDS011;35724;49.324;-123.118;2022-10-16T09:36:47;6.50;;;5.90;;
12842;SDS011;35724;49.324;-123.118;2022-10-16T09:58:30;7.00;;;6.13;;
12842;SDS011;35724;49.324;-123.118;2022-10-16T10:09:05;7.85;;;7.07;;
12842;SDS011;35724;49.324;-123.118;2022-10-16T10:19:23;7.60;;;6.90;;
12842;SDS011;35724;49.324;-123.118;2022-10-16T10:29:38;7.93;;;7.13;;
12842;SDS011;35724;49.324;-123.118;2022-10-16T10:40:07;8.35;;;7.53;;
12842;SDS011;35724;49.324;-123.118;2022-10-16T10:51:10;8.52;;;7.38;;
12842;SDS011;35724;49.324;-123.118;2022-10-16T11:01:34;8.60;;;7.72;;
12842;SDS011;35724;49.324;-123.118;2022-10-16T11:11:53;8.20;;;7.40;;
12842;SDS011;35724;49.324;-123.118;2022-10-16T11:22:30;9.30;;;8.02;;
12842;SDS011;35724;49.324;-123.118;2022-10-16T11:33:14;9.70;;;8.80;;
12842;SDS011;35724;49.324;-123.118;2022-10-16T11:45:02;10.60;;;8.95;;
12842;SDS011;35724;49.324;-123.118;2022-10-16T11:55:57;10.02;;;9.10;;
12842;SDS011;35724;49.324;-123.118;2022-10-16T13:20:05;10.95;;;9.85;;
12842;SDS011;35724;49.324;-123.118;2022-10-16T13:30:34;11.52;;;10.43;;
12842;SDS011;35724;49.324;-123.118;2022-10-16T13:40:53;12.10;;;10.75;;
12842;SDS011;35724;49.324;-123.118;2022-10-16T13:51:12;12.32;;;11.02;;
12842;SDS011;35724;49.324;-123.118;2022-10-16T14:01:40;12.57;;;11.35;;
12842;SDS011;35724;49.324;-123.118;2022-10-16T15:13:35;13.68;;;11.55;;
12842;SDS011;35724;49.324;-123.118;2022-10-16T15:47:19;13.55;;;12.13;;
12842;SDS011;35724;49.324;-123.118;2022-10-16T15:57:30;15.95;;;14.45;;
12842;SDS011;35724;49.324;-123.118;2022-10-16T16:07:38;15.60;;;13.82;;
12842;SDS011;35724;49.324;-123.118;2022-10-16T16:17:48;15.23;;;13.45;;
12842;SDS011;35724;49.324;-123.118;2022-10-16T16:27:55;15.15;;;13.25;;
12842;SDS011;35724;49.324;-123.118;2022-10-16T16:38:04;14.70;;;13.30;;
12842;SDS011;35724;49.324;-123.118;2022-10-16T16:48:11;16.20;;;14.65;;
12842;SDS011;35724;49.324;-123.118;2022-10-16T16:58:20;16.75;;;14.20;;
12842;SDS011;35724;49.324;-123.118;2022-10-16T17:08:29;15.25;;;13.85;;
12842;SDS011;35724;49.324;-123.118;2022-10-16T17:18:38;15.63;;;14.20;;
12842;SDS011;35724;49.324;-123.118;2022-10-16T17:28:45;15.05;;;12.57;;
12842;SDS011;35724;49.324;-123.118;2022-10-16T17:39:03;13.45;;;12.07;;
12842;SDS011;35724;49.324;-123.118;2022-10-16T17:49:11;13.10;;;11.75;;
12842;SDS011;35724;49.324;-123.118;2022-10-16T17:59:21;14.18;;;12.68;;
12842;SDS011;35724;49.324;-123.118;2022-10-16T18:09:29;14.05;;;12.65;;
12842;SDS011;35724;49.324;-123.118;2022-10-16T18:19:38;14.00;;;12.60;;
12842;SDS011;35724;49.324;-123.118;2022-10-16T18:29:45;16.20;;;13.20;;
12842;SDS011;35724;49.324;-123.118;2022-10-16T18:39:54;17.02;;;15.23;;
12842;SDS011;35724;49.324;-123.118;2022-10-16T18:50:05;20.15;;;18.13;;
12842;SDS011;35724;49.324;-123.118;2022-10-16T19:00:15;17.75;;;15.95;;
12842;SDS011;35724;49.324;-123.118;2022-10-16T19:10:23;16.42;;;14.70;;
12842;SDS011;35724;49.324;-123.118;2022-10-16T19:20:32;18.08;;;16.25;;
12842;SDS011;35724;49.324;-123.118;2022-10-16T19:30:40;19.90;;;17.90;;
12842;SDS011;35724;49.324;-123.118;2022-10-16T19:40:50;18.30;;;16.40;;
12842;SDS011;35724;49.324;-123.118;2022-10-16T19:50:57;14.15;;;12.65;;
12842;SDS011;35724;49.324;-123.118;2022-10-16T20:01:07;11.98;;;9.60;;
12842;SDS011;35724;49.324;-123.118;2022-10-16T20:11:15;9.18;;;8.25;;
12842;SDS011;35724;49.324;-123.118;2022-10-16T20:21:26;8.90;;;8.07;;
12842;SDS011;35724;49.324;-123.118;2022-10-16T20:31:35;10.18;;;8.02;;
12842;SDS011;35724;49.324;-123.118;2022-10-16T20:52:16;10.48;;;8.30;;
12842;SDS011;35724;49.324;-123.118;2022-10-16T21:02:24;8.32;;;7.53;;
12842;SDS011;35724;49.324;-123.118;2022-10-16T21:12:32;7.80;;;7.10;;
12842;SDS011;35724;49.324;-123.118;2022-10-16T21:22:42;9.77;;;8.77;;
12842;SDS011;35724;49.324;-123.118;2022-10-16T21:32:49;13.15;;;11.88;;
12842;SDS011;35724;49.324;-123.118;2022-10-16T21:42:58;11.00;;;9.90;;
12842;SDS011;35724;49.324;-123.118;2022-10-16T21:53:07;8.65;;;7.85;;
12842;SDS011;35724;49.324;-123.118;2022-10-16T22:03:15;8.98;;;7.63;;
12842;SDS011;35724;49.324;-123.118;2022-10-16T22:13:23;9.70;;;6.55;;
12842;SDS011;35724;49.324;-123.118;2022-10-16T22:23:32;6.95;;;6.20;;
12842;SDS011;35724;49.324;-123.118;2022-10-16T22:33:40;7.15;;;5.88;;
12842;SDS011;35724;49.324;-123.118;2022-10-16T22:43:49;6.93;;;6.22;;
12842;SDS011;35724;49.324;-123.118;2022-10-16T22:53:57;8.80;;;6.85;;
12842;SDS011;35724;49.324;-123.118;2022-10-16T23:04:06;7.90;;;7.10;;
12842;SDS011;35724;49.324;-123.118;2022-10-16T23:14:18;8.20;;;7.40;;
12842;SDS011;35724;49.324;-123.118;2022-10-16T23:24:30;9.13;;;5.95;;
12842;SDS011;35724;49.324;-123.118;2022-10-16T23:34:39;11.25;;;6.50;;
12842;SDS011;35724;49.324;-123.118;2022-10-16T23:44:47;15.45;;;6.63;;
12842;SDS011;35724;49.324;-123.118;2022-10-16T23:54:54;10.23;;;7.15;;
